createdAt,value
2022-10-24T00:01:20.903Z,44.73
2022-10-24T00:03:58.054Z,44.13
2022-10-24T00:06:30.003Z,42.94
2022-10-24T00:09:05.179Z,43.49
2022-10-24T00:11:44.196Z,42.33
2022-10-24T00:14:16.395Z,40.31
2022-10-24T00:16:50.905Z,39.35
2022-10-24T00:19:23.134Z,39.42
2022-10-24T00:21:55.159Z,40.30
2022-10-24T00:24:27.605Z,39.40
2022-10-24T00:27:02.647Z,39.84
2022-10-24T00:29:34.785Z,38.93
2022-10-24T00:32:06.710Z,38.89
2022-10-24T00:34:45.616Z,39.54
2022-10-24T00:39:52.986Z,39.29
2022-10-24T00:42:24.910Z,38.48
2022-10-24T00:44:59.760Z,38.98
2022-10-24T00:47:34.288Z,37.76
2022-10-24T00:50:13.514Z,37.31
2022-10-24T00:52:48.060Z,37.78
2022-10-24T00:55:21.466Z,37.60
2022-10-24T00:57:56.891Z,37.39
2022-10-24T01:00:30.481Z,40.48
2022-10-24T01:03:07.422Z,38.04
2022-10-24T01:06:05.724Z,37.24
2022-10-24T01:08:56.532Z,37.91
2022-10-24T01:11:37.785Z,37.97
2022-10-24T01:14:09.724Z,38.83
2022-10-24T01:16:47.213Z,39.33
2022-10-24T01:19:40.482Z,37.49
2022-10-24T01:22:21.858Z,38.16
2022-10-24T01:24:58.315Z,37.64
2022-10-24T01:27:42.028Z,38.17
2022-10-24T01:30:17.800Z,38.58
2022-10-24T01:32:50.010Z,38.54
2022-10-24T01:35:49.196Z,38.34
2022-10-24T01:38:21.224Z,38.52
2022-10-24T01:41:08.334Z,37.49
2022-10-24T01:43:50.148Z,36.52
2022-10-24T01:46:27.662Z,35.07
2022-10-24T01:49:06.624Z,33.86
2022-10-24T01:51:40.741Z,32.90
2022-10-24T01:54:16.134Z,33.35
2022-10-24T01:56:48.161Z,33.45
2022-10-24T01:59:28.549Z,33.72
2022-10-24T02:02:11.253Z,33.31
2022-10-24T02:05:06.759Z,33.25
2022-10-24T02:07:43.970Z,33.37
2022-10-24T02:10:21.063Z,34.59
2022-10-24T02:13:00.607Z,34.82
2022-10-24T02:15:39.121Z,32.48
2022-10-24T02:18:14.163Z,32.40
2022-10-24T02:20:56.362Z,33.04
2022-10-24T02:23:51.060Z,32.56
2022-10-24T02:26:44.027Z,32.31
2022-10-24T02:29:23.511Z,36.69
2022-10-24T02:31:58.315Z,31.75
2022-10-24T02:34:35.308Z,37.23
2022-10-24T02:37:15.155Z,31.94
2022-10-24T02:39:54.436Z,36.65
2022-10-24T02:42:32.700Z,33.49
2022-10-24T02:45:10.029Z,32.80
2022-10-24T02:47:44.893Z,32.44
2022-10-24T02:50:19.431Z,30.95
2022-10-24T02:52:51.695Z,31.36
2022-10-24T02:55:28.502Z,32.14
2022-10-24T02:58:00.639Z,32.37
2022-10-24T03:00:34.802Z,32.23
2022-10-24T03:03:07.031Z,32.45
2022-10-24T03:05:41.203Z,32.64
2022-10-24T03:08:16.332Z,34.17
2022-10-24T03:10:50.379Z,33.70
2022-10-24T03:13:33.163Z,33.47
2022-10-24T03:16:07.694Z,33.94
2022-10-24T03:18:42.483Z,34.92
2022-10-24T03:21:14.466Z,34.58
2022-10-24T03:23:49.121Z,34.40
2022-10-24T03:26:23.375Z,35.61
2022-10-24T03:28:57.971Z,35.86
2022-10-24T03:31:32.667Z,35.49
2022-10-24T03:34:04.977Z,36.46
2022-10-24T03:36:41.891Z,35.46
2022-10-24T03:39:16.439Z,35.73
2022-10-24T03:41:48.384Z,35.73
2022-10-24T03:44:25.388Z,36.61
2022-10-24T03:46:57.266Z,36.23
2022-10-24T03:49:34.021Z,35.64
2022-10-24T03:52:06.519Z,36.07
2022-10-24T03:54:43.553Z,36.93
2022-10-24T03:57:22.939Z,37.11
2022-10-24T03:59:57.399Z,36.64
2022-10-24T04:02:32.195Z,37.26
2022-10-24T04:05:09.236Z,37.46
2022-10-24T04:07:41.131Z,37.76
2022-10-24T04:10:13.236Z,38.32
2022-10-24T04:12:47.423Z,37.74
2022-10-24T04:15:21.891Z,37.31
2022-10-24T04:17:53.772Z,36.65
2022-10-24T04:20:25.935Z,37.75
2022-10-24T04:23:02.392Z,40.32
2022-10-24T04:25:43.944Z,36.60
2022-10-24T04:28:18.425Z,36.14
2022-10-24T04:30:56.025Z,36.57
2022-10-24T04:33:30.087Z,36.22
2022-10-24T04:36:07.156Z,36.53
2022-10-24T04:38:41.774Z,35.84
2022-10-24T04:41:16.221Z,36.50
2022-10-24T04:43:53.131Z,37.40
2022-10-24T04:46:25.207Z,36.26
2022-10-24T04:48:57.103Z,37.01
2022-10-24T04:51:31.520Z,36.49
2022-10-24T04:54:06.344Z,36.40
2022-10-24T04:56:40.950Z,35.50
2022-10-24T04:59:12.831Z,35.09
2022-10-24T05:01:47.786Z,35.95
2022-10-24T05:04:19.877Z,35.56
2022-10-24T05:06:52.028Z,35.14
2022-10-24T05:09:26.274Z,34.88
2022-10-24T05:11:58.435Z,43.58
2022-10-24T05:14:35.011Z,34.49
2022-10-24T05:17:07.163Z,36.46
2022-10-24T05:19:39.113Z,34.52
2022-10-24T05:22:15.948Z,34.32
2022-10-24T05:24:47.896Z,34.49
2022-10-24T05:27:24.890Z,34.32
2022-10-24T05:29:56.841Z,36.50
2022-10-24T05:32:33.741Z,36.68
2022-10-24T05:35:10.999Z,34.93
2022-10-24T05:37:45.605Z,35.66
2022-10-24T05:40:19.715Z,35.63
2022-10-24T05:42:59.216Z,35.31
2022-10-24T05:45:33.569Z,34.83
2022-10-24T05:48:08.117Z,35.98
2022-10-24T05:50:43.064Z,37.17
2022-10-24T05:53:15.192Z,35.68
2022-10-24T05:55:51.737Z,37.77
2022-10-24T05:58:24.931Z,36.88
2022-10-24T06:00:59.439Z,48.56
2022-10-24T06:03:33.903Z,36.99
2022-10-24T06:06:06.489Z,38.63
2022-10-24T06:08:40.923Z,41.01
2022-10-24T06:11:13.593Z,37.71
2022-10-24T06:13:46.542Z,37.63
2022-10-24T06:16:20.879Z,38.32
2022-10-24T06:18:55.375Z,39.39
2022-10-24T06:21:27.514Z,39.47
2022-10-24T06:23:59.655Z,39.75
2022-10-24T06:26:36.535Z,39.74
2022-10-24T06:29:08.956Z,39.85
2022-10-24T06:31:43.037Z,39.75
2022-10-24T06:34:17.369Z,39.80
2022-10-24T06:36:52.008Z,39.80
2022-10-24T06:39:24.442Z,39.56
2022-10-24T06:42:01.202Z,39.98
2022-10-24T06:44:36.133Z,39.26
2022-10-24T06:47:13.555Z,39.36
2022-10-24T06:49:50.686Z,38.80
2022-10-24T06:52:22.913Z,38.34
2022-10-24T06:54:55.879Z,38.26
2022-10-24T06:57:32.684Z,38.81
2022-10-24T07:00:05.704Z,37.92
2022-10-24T07:02:42.587Z,37.71
2022-10-24T07:05:15.251Z,37.41
2022-10-24T07:07:52.060Z,40.51
2022-10-24T07:10:24.200Z,38.24
2022-10-24T07:12:58.345Z,37.60
2022-10-24T07:15:30.573Z,37.72
2022-10-24T07:18:02.518Z,37.24
2022-10-24T07:23:16.121Z,38.16
2022-10-24T07:25:52.774Z,38.08
2022-10-24T07:28:24.641Z,38.07
2022-10-24T07:31:01.214Z,39.20
2022-10-24T07:33:37.425Z,44.30
2022-10-24T07:36:09.894Z,39.43
2022-10-24T07:38:44.628Z,38.98
2022-10-24T07:41:16.950Z,38.26
2022-10-24T07:43:52.604Z,36.63
2022-10-24T07:46:29.667Z,43.64
2022-10-24T07:49:01.565Z,36.49
2022-10-24T07:51:38.662Z,36.08
2022-10-24T07:54:18.435Z,36.61
2022-10-24T07:56:50.516Z,36.67
2022-10-24T07:59:41.274Z,35.85
2022-10-24T08:02:14.697Z,34.09
2022-10-24T08:04:46.618Z,34.51
2022-10-24T08:07:18.752Z,34.53
2022-10-24T08:09:55.513Z,33.24
2022-10-24T08:12:29.965Z,33.29
2022-10-24T08:15:04.562Z,32.65
2022-10-24T08:17:39.225Z,33.56
2022-10-24T08:20:18.574Z,32.84
2022-10-24T08:22:55.411Z,32.34
2022-10-24T08:25:27.331Z,32.58
2022-10-24T08:28:05.220Z,32.74
2022-10-24T08:30:42.433Z,34.22
2022-10-24T08:33:18.709Z,34.80
2022-10-24T08:35:53.128Z,34.38
2022-10-24T08:38:25.633Z,34.94
2022-10-24T08:41:02.395Z,34.87
2022-10-24T08:43:44.073Z,35.49
2022-10-24T08:46:31.782Z,35.52
2022-10-24T08:49:16.558Z,36.00
2022-10-24T08:51:55.686Z,34.42
2022-10-24T08:54:36.941Z,34.89
2022-10-24T08:57:22.534Z,36.18
2022-10-24T08:59:58.453Z,35.31
2022-10-24T09:02:38.015Z,35.20
2022-10-24T09:05:23.777Z,35.43
2022-10-24T09:08:04.079Z,34.68
2022-10-24T09:10:51.714Z,33.63
2022-10-24T09:13:26.650Z,33.18
2022-10-24T09:15:58.940Z,33.94
2022-10-24T09:18:42.684Z,33.71
2022-10-24T09:21:15.295Z,33.52
2022-10-24T09:23:49.055Z,33.29
2022-10-24T09:26:28.875Z,32.39
2022-10-24T09:29:03.651Z,31.66
2022-10-24T09:31:35.916Z,31.32
2022-10-24T09:34:11.280Z,31.59
2022-10-24T09:36:47.089Z,32.03
2022-10-24T09:39:27.654Z,29.45
2022-10-24T09:42:05.856Z,30.58
2022-10-24T09:44:44.113Z,30.25
2022-10-24T09:47:27.449Z,30.33
2022-10-24T09:49:59.634Z,29.99
2022-10-24T09:52:34.096Z,31.02
2022-10-24T09:55:18.766Z,29.66
2022-10-24T09:57:53.956Z,30.06
2022-10-24T10:00:32.619Z,30.87
2022-10-24T10:03:31.182Z,29.53
2022-10-24T10:06:19.877Z,29.98
2022-10-24T10:08:56.261Z,30.23
2022-10-24T10:11:35.405Z,30.42
2022-10-24T10:14:32.576Z,29.48
2022-10-24T10:17:09.737Z,29.48
2022-10-24T10:19:48.236Z,30.27
2022-10-24T10:22:23.201Z,31.85
2022-10-24T10:25:01.845Z,29.00
2022-10-24T10:27:38.948Z,29.55
2022-10-24T10:30:17.241Z,28.52
2022-10-24T10:32:52.215Z,28.92
2022-10-24T10:35:33.188Z,28.98
2022-10-24T10:38:23.471Z,28.36
2022-10-24T10:41:04.805Z,28.75
2022-10-24T10:43:39.647Z,28.94
2022-10-24T10:46:29.677Z,26.43
2022-10-24T10:49:24.989Z,26.79
2022-10-24T10:52:29.669Z,26.54
2022-10-24T10:55:21.894Z,26.29
2022-10-24T10:58:17.755Z,25.97
2022-10-24T11:00:52.059Z,24.66
2022-10-24T11:03:36.469Z,25.17
2022-10-24T11:06:14.461Z,24.19
2022-10-24T11:09:00.000Z,23.24
2022-10-24T11:11:38.354Z,22.61
2022-10-24T11:14:27.664Z,23.56
2022-10-24T11:17:11.679Z,24.46
2022-10-24T11:19:45.986Z,23.71
2022-10-24T11:22:36.409Z,23.59
2022-10-24T11:25:28.765Z,23.58
2022-10-24T11:28:18.615Z,22.36
2022-10-24T11:31:02.098Z,21.22
2022-10-24T11:33:41.629Z,20.67
2022-10-24T11:36:19.404Z,21.39
2022-10-24T11:39:01.444Z,20.71
2022-10-24T11:41:50.205Z,20.25
2022-10-24T11:44:25.318Z,20.54
2022-10-24T11:47:10.193Z,25.16
2022-10-24T11:49:50.736Z,21.58
2022-10-24T11:52:29.314Z,35.66
2022-10-24T11:55:07.922Z,21.84
2022-10-24T11:57:44.077Z,21.38
2022-10-24T12:00:21.346Z,20.80
2022-10-24T12:03:13.697Z,19.90
2022-10-24T12:05:54.136Z,19.53
2022-10-24T12:08:32.039Z,18.32
2022-10-24T12:11:36.232Z,34.57
2022-10-24T12:14:08.630Z,20.61
2022-10-24T12:16:55.107Z,17.57
2022-10-24T12:19:36.838Z,17.21
2022-10-24T12:25:07.862Z,20.03
2022-10-24T12:27:41.132Z,18.26
2022-10-24T12:30:13.185Z,15.91
2022-10-24T12:32:51.117Z,15.86
2022-10-24T12:35:34.280Z,16.66
2022-10-24T12:38:27.200Z,15.11
2022-10-24T12:41:06.833Z,15.08
2022-10-24T12:43:43.308Z,14.41
2022-10-24T12:46:22.993Z,14.35
2022-10-24T12:49:00.421Z,15.41
2022-10-24T12:51:33.944Z,14.33
2022-10-24T12:54:11.277Z,13.91
2022-10-24T12:56:49.518Z,13.60
2022-10-24T12:59:29.295Z,14.15
2022-10-24T13:02:27.538Z,16.31
2022-10-24T13:05:11.819Z,14.64
2022-10-24T13:07:48.340Z,14.87
2022-10-24T13:12:47.697Z,35.97
2022-10-24T13:16:59.964Z,13.01
2022-10-24T13:19:37.327Z,15.90
2022-10-24T13:22:28.618Z,15.07
2022-10-24T13:25:19.397Z,12.41
2022-10-24T13:28:13.832Z,12.64
2022-10-24T13:30:50.498Z,11.93
2022-10-24T13:33:43.776Z,13.42
2022-10-24T13:36:22.134Z,15.31
2022-10-24T13:39:02.051Z,12.58
2022-10-24T13:41:37.922Z,13.29
2022-10-24T13:44:21.944Z,22.53
2022-10-24T13:46:59.630Z,22.74
2022-10-24T13:49:39.102Z,17.55
2022-10-24T13:52:19.477Z,18.01
2022-10-24T13:54:58.360Z,12.94
2022-10-24T13:57:37.544Z,12.68
2022-10-24T14:00:20.288Z,12.79
2022-10-24T14:02:59.772Z,13.71
2022-10-24T14:05:39.350Z,14.11
2022-10-24T14:08:23.247Z,14.82
2022-10-24T14:11:01.300Z,13.66
2022-10-24T14:13:40.167Z,13.71
2022-10-24T14:16:14.956Z,16.22
2022-10-24T14:18:50.564Z,17.85
2022-10-24T14:21:25.250Z,13.43
2022-10-24T14:24:00.781Z,13.48
2022-10-24T14:26:39.064Z,12.93
2022-10-24T14:29:22.135Z,13.52
2022-10-24T14:31:57.462Z,12.78
2022-10-24T14:34:36.093Z,14.05
2022-10-24T14:37:16.316Z,13.32
2022-10-24T14:39:50.130Z,13.79
2022-10-24T14:42:25.935Z,14.03
2022-10-24T14:45:01.747Z,14.63
2022-10-24T14:47:38.972Z,15.78
2022-10-24T14:50:27.973Z,16.08
2022-10-24T14:53:05.920Z,15.73
2022-10-24T14:55:39.624Z,15.17
2022-10-24T14:58:22.754Z,15.57
2022-10-24T15:00:57.544Z,15.71
2022-10-24T15:03:51.346Z,14.75
2022-10-24T15:06:26.863Z,15.01
2022-10-24T15:09:06.422Z,15.74
2022-10-24T15:11:43.910Z,15.39
2022-10-24T15:14:33.642Z,16.56
2022-10-24T15:17:25.846Z,16.00
2022-10-24T15:20:03.746Z,17.81
2022-10-24T15:22:38.599Z,17.28
2022-10-24T15:28:00.344Z,17.66
2022-10-24T15:30:34.862Z,18.04
2022-10-24T15:33:08.329Z,17.91
2022-10-24T15:35:43.772Z,17.38
2022-10-24T15:38:18.797Z,17.37
2022-10-24T15:40:55.771Z,17.95
2022-10-24T15:43:30.065Z,18.93
2022-10-24T15:46:05.639Z,20.09
2022-10-24T15:48:39.656Z,20.71
2022-10-24T15:51:17.110Z,17.87
2022-10-24T15:53:53.834Z,18.08
2022-10-24T15:56:30.587Z,18.17
2022-10-24T15:59:04.102Z,19.54
2022-10-24T16:01:40.553Z,18.41
2022-10-24T16:04:14.578Z,20.27
2022-10-24T16:06:47.930Z,29.93
2022-10-24T16:09:27.384Z,24.96
2022-10-24T16:12:04.891Z,23.10
2022-10-24T16:14:38.324Z,19.21
2022-10-24T16:17:11.614Z,18.38
2022-10-24T16:19:45.108Z,18.27
2022-10-24T16:22:18.413Z,18.18
2022-10-24T16:24:52.140Z,18.24
2022-10-24T16:27:31.507Z,18.72
2022-10-24T16:30:05.482Z,19.05
2022-10-24T16:32:38.947Z,18.68
2022-10-24T16:35:18.890Z,18.34
2022-10-24T16:37:52.875Z,21.89
2022-10-24T16:40:27.643Z,20.83
2022-10-24T16:43:02.512Z,18.51
2022-10-24T16:45:36.015Z,18.89
2022-10-24T16:48:09.923Z,21.14
2022-10-24T16:50:46.461Z,25.34
2022-10-24T16:53:20.165Z,22.04
2022-10-24T16:55:54.836Z,21.06
2022-10-24T16:58:33.362Z,22.06
2022-10-24T17:01:09.640Z,21.57
2022-10-24T17:03:44.840Z,20.10
2022-10-24T17:06:18.405Z,20.30
2022-10-24T17:08:52.598Z,21.71
2022-10-24T17:14:23.030Z,22.28
2022-10-24T17:16:58.639Z,21.36
2022-10-24T17:19:32.149Z,24.04
2022-10-24T17:22:08.774Z,23.60
2022-10-24T17:24:44.745Z,22.28
2022-10-24T17:27:21.235Z,21.70
2022-10-24T17:29:58.295Z,24.19
2022-10-24T17:32:33.186Z,27.14
2022-10-24T17:35:06.958Z,24.30
2022-10-24T17:37:49.709Z,23.24
2022-10-24T17:40:26.093Z,23.21
2022-10-24T17:43:04.506Z,23.30
2022-10-24T17:45:41.701Z,24.42
2022-10-24T17:48:15.435Z,25.74
2022-10-24T17:50:49.160Z,27.11
2022-10-24T17:53:22.881Z,24.88
2022-10-24T17:55:56.189Z,24.68
2022-10-24T17:58:29.774Z,25.72
2022-10-24T18:01:04.586Z,25.16
2022-10-24T18:03:40.512Z,23.86
2022-10-24T18:06:14.731Z,24.73
2022-10-24T18:08:48.825Z,24.80
2022-10-24T18:11:22.424Z,24.80
2022-10-24T18:13:56.064Z,23.73
2022-10-24T18:16:30.924Z,24.71
2022-10-24T18:19:07.491Z,24.78
2022-10-24T18:21:40.908Z,26.41
2022-10-24T18:24:14.719Z,25.97
2022-10-24T18:26:49.922Z,25.73
2022-10-24T18:29:23.430Z,24.63
2022-10-24T18:32:02.827Z,26.04
2022-10-24T18:34:36.334Z,25.90
2022-10-24T18:37:12.005Z,25.36
2022-10-24T18:39:48.365Z,26.22
2022-10-24T18:42:27.032Z,27.25
2022-10-24T18:45:03.646Z,25.70
2022-10-24T18:47:38.728Z,26.54
2022-10-24T18:50:13.992Z,26.76
2022-10-24T18:52:51.368Z,28.45
2022-10-24T18:55:26.826Z,29.83
2022-10-24T18:58:02.569Z,29.65
2022-10-24T19:00:38.270Z,29.43
2022-10-24T19:03:19.107Z,28.77
2022-10-24T19:06:06.346Z,29.35
2022-10-24T19:08:45.167Z,30.13
2022-10-24T19:11:18.755Z,30.39
2022-10-24T19:13:52.198Z,31.41
2022-10-24T19:16:28.861Z,32.84
2022-10-24T19:19:07.130Z,33.20
2022-10-24T19:21:42.254Z,34.18
2022-10-24T19:24:17.293Z,33.35
2022-10-24T19:26:51.043Z,32.53
2022-10-24T19:29:29.202Z,32.20
2022-10-24T19:32:05.411Z,32.96
2022-10-24T19:34:41.414Z,32.53
2022-10-24T19:37:15.829Z,33.27
2022-10-24T19:39:52.469Z,37.25
2022-10-24T19:42:28.462Z,36.93
2022-10-24T19:45:06.011Z,33.93
2022-10-24T19:47:39.492Z,35.16
2022-10-24T19:50:14.329Z,35.65
2022-10-24T19:52:47.813Z,34.76
2022-10-24T19:55:23.750Z,35.41
2022-10-24T19:57:57.223Z,35.50
2022-10-24T20:00:31.326Z,35.25
2022-10-24T20:03:05.353Z,34.86
2022-10-24T20:05:41.307Z,35.89
2022-10-24T20:08:14.842Z,36.49
2022-10-24T20:10:52.957Z,36.53
2022-10-24T20:13:29.223Z,37.34
2022-10-24T20:16:05.484Z,38.33
2022-10-24T20:21:22.189Z,39.27
2022-10-24T20:24:01.236Z,39.14
2022-10-24T20:26:34.577Z,40.35
2022-10-24T20:29:10.184Z,40.20
2022-10-24T20:31:45.489Z,40.54
2022-10-24T20:34:21.132Z,40.06
2022-10-24T20:36:57.896Z,40.97
2022-10-24T20:39:35.378Z,42.49
2022-10-24T20:42:08.798Z,42.40
2022-10-24T20:44:42.320Z,42.24
2022-10-24T20:47:15.647Z,41.95
2022-10-24T20:49:51.500Z,41.83
2022-10-24T20:52:26.422Z,41.50
2022-10-24T20:55:07.588Z,42.33
2022-10-24T20:57:51.594Z,41.57
2022-10-24T21:00:25.085Z,42.23
2022-10-24T21:02:58.380Z,41.98
2022-10-24T21:05:31.863Z,41.20
2022-10-24T21:08:08.786Z,41.29
2022-10-24T21:10:42.271Z,41.85
2022-10-24T21:13:17.852Z,42.38
2022-10-24T21:15:57.313Z,42.33
2022-10-24T21:18:30.644Z,41.61
2022-10-24T21:21:07.064Z,42.45
2022-10-24T21:23:42.396Z,42.55
2022-10-24T21:26:15.927Z,42.29
2022-10-24T21:28:59.568Z,43.74
2022-10-24T21:31:49.310Z,43.24
2022-10-24T21:34:26.734Z,42.37
2022-10-24T21:37:04.783Z,42.25
2022-10-24T21:39:41.745Z,41.17
2022-10-24T21:42:15.168Z,41.02
2022-10-24T21:44:48.489Z,41.86
2022-10-24T21:47:21.946Z,40.74
2022-10-24T21:49:59.839Z,40.61
2022-10-24T21:52:33.955Z,40.71
2022-10-24T21:55:09.183Z,40.03
2022-10-24T21:57:42.679Z,40.21
2022-10-24T22:00:22.139Z,39.34
2022-10-24T22:02:55.675Z,39.44
2022-10-24T22:05:28.992Z,39.80
2022-10-24T22:08:04.333Z,39.88
2022-10-24T22:10:39.028Z,38.30
2022-10-24T22:13:14.665Z,39.50
2022-10-24T22:15:47.966Z,40.60
2022-10-24T22:18:24.593Z,39.25
2022-10-24T22:20:57.920Z,41.83
2022-10-24T22:23:31.456Z,39.52
2022-10-24T22:26:06.176Z,38.07
2022-10-24T22:28:39.610Z,38.13
2022-10-24T22:31:15.521Z,37.29
2022-10-24T22:33:49.176Z,36.77
2022-10-24T22:36:28.921Z,37.00
2022-10-24T22:39:02.537Z,36.39
2022-10-24T22:41:37.499Z,36.86
2022-10-24T22:44:14.472Z,35.44
2022-10-24T22:47:00.822Z,33.92
2022-10-24T22:49:46.993Z,34.48
2022-10-24T22:52:22.670Z,35.00
2022-10-24T22:54:56.618Z,32.44
2022-10-24T23:00:12.668Z,33.13
2022-10-24T23:02:47.066Z,39.30
2022-10-24T23:05:28.137Z,39.47
2022-10-24T23:08:04.631Z,36.05
2022-10-24T23:10:40.865Z,33.63
2022-10-24T23:13:15.850Z,33.19
2022-10-24T23:15:55.540Z,32.29
2022-10-24T23:18:29.187Z,32.49
2022-10-24T23:21:11.413Z,32.81
2022-10-24T23:23:45.012Z,32.33
2022-10-24T23:26:27.251Z,32.97
2022-10-24T23:29:06.713Z,32.54
2022-10-24T23:31:40.415Z,31.99
2022-10-24T23:34:14.015Z,31.51
2022-10-24T23:36:50.576Z,31.64
2022-10-24T23:39:31.608Z,31.52
2022-10-24T23:42:07.832Z,30.64
2022-10-24T23:44:45.450Z,30.67
2022-10-24T23:47:26.800Z,30.72
2022-10-24T23:50:06.840Z,30.84
2022-10-24T23:52:48.430Z,30.40
2022-10-24T23:55:22.310Z,29.35
2022-10-24T23:57:55.839Z,27.86
